ADDS METAR Data INFO
IDs: Format: Raw Decoded Include TAF

Data at: 1750 UTC 21 Oct 2017

KCRQ 211653Z AUTO 00000KT 10SM CLR 19/13 A3004 RMK AO2 SLP171 T01890128
KCRQ 211553Z AUTO 00000KT 10SM CLR 18/12 A3003 RMK AO2 SLP168 T01780117
KCRQ 211453Z AUTO 07003KT 10SM CLR 15/11 A3001 RMK AO2 SLP161 T01500111 53013
KCRQ 211353Z AUTO 06004KT 10SM CLR 14/11 A3000 RMK AO2 SLP156 T01390106
KCRQ 211253Z AUTO 07003KT 10SM CLR 14/11 A2999 RMK AO2 SLP152 T01440111
KCRQ 211153Z AUTO 09003KT 10SM CLR 15/12 A2997 RMK AO2 SLP148 T01500117 10178 20144 50001
KCRQ 211053Z AUTO 00000KT 10SM CLR 15/12 A2998 RMK AO2 SLP149 T01500117
KCRQ 210953Z AUTO 12005KT 10SM FEW039 16/12 A2997 RMK AO2 SLP148 T01610122
KCRQ 210853Z AUTO 12006KT 10SM CLR 16/12 A2997 RMK AO2 SLP146 T01610122 50002
KCRQ 210753Z AUTO 11006KT 10SM OVC039 17/12 A2997 RMK AO2 SLP147 T01670122 402060167
KCRQ 210653Z AUTO 12006KT 10SM OVC039 17/13 A2997 RMK AO2 SLP146 T01670133
KCRQ 210553Z AUTO 12005KT 10SM BKN034 17/13 A2997 RMK AO2 SLP144 T01670133 10194 20167 51012
KCRQ 210453Z AUTO 13005KT 10SM FEW034 17/13 A2995 RMK AO2 SLP140 T01720133
KCRQ 210353Z AUTO 18003KT 10SM BKN032 18/14 A2995 RMK AO2 SLP138 T01780139
KCRQ 210253Z AUTO 22004KT 10SM BKN030 18/14 A2993 RMK AO2 SLP132 T01780139 53005
KCRQ 210209Z AUTO 25007KT 10SM SCT021 SCT027 BKN032 18/14 A2993 RMK AO2 T01830139
KCRQ 210153Z AUTO 26008KT 10SM SCT022 BKN027 OVC032 18/14 A2992 RMK AO2 SLP130 T01830139
KCRQ 210113Z AUTO 26007KT 10SM FEW020 OVC032 18/14 A2992 RMK AO2 T01830144
KCRQ 210053Z AUTO 25009KT 10SM BKN021 OVC030 18/14 A2991 RMK AO2 SLP127 T01830144
KCRQ 202353Z AUTO 25009KT 10SM BKN018 19/14 A2991 RMK AO2 SLP126 60000 T01890144 10206 20189 56010
KCRQ 202253Z AUTO 24014KT 10SM BKN016 BKN021 OVC048 19/16 A2992 RMK AO2 SLP129 T01940156
KCRQ 202153Z AUTO 26012KT 10SM SCT018 BKN024 BKN050 19/16 A2993 RMK AO2 SLP133 T01940156
KCRQ 202139Z AUTO 24011KT 10SM SCT017 BKN024 BKN050 20/16 A2993 RMK AO2 T02000161
KCRQ 202123Z AUTO 26007KT 10SM SCT019 SCT024 BKN050 20/16 A2993 RMK AO2 T02000156
KCRQ 202053Z AUTO 26009KT 10SM SCT019 BKN024 BKN048 20/15 A2994 RMK AO2 SLP136 60000 T02000150 58009
KCRQ 202042Z AUTO 26009KT 10SM SCT019 BKN024 BKN048 19/14 A2993 RMK AO2 T01940144
KCRQ 201953Z AUTO 24010KT 10SM FEW019 BKN036 OVC047 20/14 A2996 RMK AO2 RAB33E43 SLP143 P0000 T02000144
KCRQ 201853Z AUTO 26010KT 10SM SCT022 SCT029 BKN045 20/15 A2997 RMK AO2 SLP147 T02000150
KCRQ 201803Z AUTO 27008KT 10SM FEW022 SCT029 OVC039 19/14 A2997 RMK AO2 T01940144
KCRQ 201753Z AUTO 25011G16KT 10SM SCT022 BKN028 OVC042 19/14 A2997 RMK AO2 SLP146 T01940139 10200 20178 53002
KCRQ 201702Z AUTO VRB06KT 10SM BKN020 BKN029 BKN036 19/14 A2997 RMK AO2 T01940144
KCRQ 201653Z AUTO 28006KT 10SM SCT020 BKN032 BKN040 19/14 A2996 RMK AO2 SLP143 T01940144
KCRQ 201649Z AUTO 28006KT 10SM SCT020 BKN030 BKN038 19/14 A2996 RMK AO2
KCRQ 201614Z AUTO 29007KT 10SM BKN024 BKN030 BKN044 19/14 A2997 RMK AO2 T01940139
KCRQ 201607Z AUTO 29005KT 10SM SCT024 BKN044 19/14 A2997 RMK AO2 T01890139
KCRQ 201553Z AUTO 29006KT 10SM BKN021 BKN029 OVC044 19/14 A2997 RMK AO2 SLP145 T01890144
KCRQ 201537Z AUTO VRB05KT 10SM BKN021 OVC043 19/15 A2996 RMK AO2 T01890150
KCRQ 201453Z AUTO 27006KT 10SM BKN045 19/14 A2995 RMK AO2 SLP139 T01890144 51014
KCRQ 201353Z AUTO 26008KT 10SM FEW030 BKN039 19/14 A2995 RMK AO2 SLP138 T01940144
KCRQ 201253Z AUTO 18004KT 10SM FEW031 BKN048 18/16 A2993 RMK AO2 SLP132 T01830161
KCRQ 201230Z AUTO 18007KT 160V240 10SM FEW020 SCT027 SCT032 18/16 A2993 RMK AO2 T01780161
KCRQ 201153Z AUTO 14005KT 10SM BKN025 OVC033 18/16 A2991 RMK AO2 SLP125 T01830161 10189 20178 58007
KCRQ 201053Z AUTO 15004KT 10SM OVC032 18/16 A2991 RMK AO2 SLP127 T01830161
KCRQ 201038Z AUTO 15005KT 10SM FEW021 OVC032 18/16 A2992 RMK AO2 T01830161
KCRQ 200953Z AUTO 14003KT 10SM BKN020 18/16 A2993 RMK AO2 SLP131 T01830161
KCRQ 200853Z AUTO 13003KT 10SM BKN021 18/17 A2993 RMK AO2 SLP133 T01830167 55001
KCRQ 200753Z AUTO 19003KT 10SM OVC020 19/17 A2993 RMK AO2 SLP132 T01890172 402170183
KCRQ 200718Z AUTO 00000KT 10SM SCT013 BKN020 18/17 A2992 RMK AO2 T01830167
KCRQ 200706Z AUTO 14003KT 10SM SCT021 18/17 A2992 RMK AO2 T01830167
KCRQ 200653Z AUTO 16003KT 10SM FEW012 BKN021 19/17 A2992 RMK AO2 SLP128 T01890167
KCRQ 200553Z AUTO 18003KT 10SM BKN016 BKN024 19/17 A2994 RMK AO2 SLP134 T01890172 10206 20189 53012